Time;durP1;ratioP1;P1;durP2;ratioP2;P2;SDS_P1;SDS_P2;PMS_P1;PMS_P2;Temp;Humidity;BMP_temperature;BMP_pressure;BME280_temperature;BME280_humidity;BME280_pressure;Samples;Min_cycle;Max_cycle;Signal;HPM_P1;HPM_P2
2021/10/19 00:00:20;;;;;;;12.53;10.97;;;11.60;99.90;;;;;;5118189;28;20898;-70
2021/10/19 00:02:47;;;;;;;14.27;10.80;;;11.60;99.90;;;;;;5118561;28;20453;-70
2021/10/19 00:05:14;;;;;;;12.10;10.80;;;11.60;99.90;;;;;;5118176;28;20449;-70
2021/10/19 00:07:41;;;;;;;15.27;11.00;;;11.70;99.90;;;;;;5118458;27;20569;-70
2021/10/19 00:10:09;;;;;;;12.63;10.97;;;11.70;99.90;;;;;;5118000;28;20494;-70
2021/10/19 00:12:42;;;;;;;14.67;11.90;;;11.60;99.90;;;;;;5117638;28;20464;-70
2021/10/19 00:15:11;;;;;;;14.57;10.70;;;11.60;99.90;;;;;;5117462;27;20487;-70
2021/10/19 00:17:39;;;;;;;12.77;11.30;;;11.60;99.90;;;;;;5117682;28;20459;-70
2021/10/19 00:20:07;;;;;;;13.30;11.03;;;11.60;99.90;;;;;;5118012;28;20479;-68
2021/10/19 00:22:34;;;;;;;15.00;11.03;;;11.50;99.90;;;;;;5117457;28;20455;-69
2021/10/19 00:25:04;;;;;;;14.30;11.83;;;11.50;99.90;;;;;;5117633;28;20473;-70
2021/10/19 00:27:31;;;;;;;16.30;11.83;;;11.50;99.90;;;;;;5117773;28;20557;-70
2021/10/19 00:29:59;;;;;;;13.40;11.23;;;11.50;99.90;;;;;;5117009;28;20917;-70
2021/10/19 00:32:26;;;;;;;14.20;11.50;;;11.50;99.90;;;;;;5117256;28;20450;-70
2021/10/19 00:34:53;;;;;;;16.90;12.47;;;11.50;99.90;;;;;;5117790;28;20509;-70
2021/10/19 00:37:23;;;;;;;14.47;11.17;;;11.50;99.90;;;;;;5117564;28;20456;-70
2021/10/19 00:39:49;;;;;;;14.50;11.50;;;11.50;99.90;;;;;;5117400;27;20465;-70
2021/10/19 00:42:16;;;;;;;15.10;11.30;;;11.50;99.90;;;;;;5117473;28;20524;-70
2021/10/19 00:44:44;;;;;;;13.70;11.10;;;11.50;99.90;;;;;;5116975;28;20449;-69
2021/10/19 00:47:19;;;;;;;15.83;11.90;;;11.50;99.90;;;;;;5116286;28;20483;-69
2021/10/19 00:49:46;;;;;;;14.47;11.50;;;11.50;99.90;;;;;;5117689;28;20439;-69
2021/10/19 00:52:13;;;;;;;16.53;12.07;;;11.50;99.90;;;;;;5117505;28;20453;-69
2021/10/19 00:54:43;;;;;;;14.47;12.60;;;11.40;99.90;;;;;;5117255;28;21044;-69
2021/10/19 00:57:10;;;;;;;22.10;13.27;;;11.40;99.90;;;;;;5116597;27;20936;-70
2021/10/19 00:59:42;;;;;;;14.63;12.93;;;11.40;99.90;;;;;;5117191;28;20463;-68
2021/10/19 01:02:10;;;;;;;15.93;12.73;;;11.40;99.90;;;;;;5117451;28;20474;-69
2021/10/19 01:04:38;;;;;;;16.53;12.50;;;11.30;99.90;;;;;;5116962;28;21003;-68
2021/10/19 01:07:05;;;;;;;17.70;13.30;;;11.20;99.90;;;;;;5116321;28;21003;-71
2021/10/19 01:09:32;;;;;;;15.13;12.77;;;11.20;99.90;;;;;;5116341;28;20485;-71
2021/10/19 01:11:59;;;;;;;16.60;12.43;;;11.20;99.90;;;;;;5116422;28;20551;-69
2021/10/19 01:14:26;;;;;;;19.17;13.33;;;11.20;99.90;;;;;;5116589;28;20492;-69
2021/10/19 01:16:52;;;;;;;15.90;12.83;;;11.20;99.90;;;;;;5117017;28;20453;-69
2021/10/19 01:19:23;;;;;;;15.83;13.30;;;11.20;99.90;;;;;;5116360;28;20797;-69
2021/10/19 01:21:53;;;;;;;15.90;13.40;;;11.10;99.90;;;;;;5116573;28;20462;-69
2021/10/19 01:24:20;;;;;;;15.90;12.97;;;11.10;99.90;;;;;;5116463;28;20464;-70
2021/10/19 01:26:47;;;;;;;15.07;12.27;;;11.00;99.90;;;;;;5116189;28;20453;-69
2021/10/19 01:29:14;;;;;;;16.07;13.00;;;11.00;99.90;;;;;;5116071;28;20946;-69
2021/10/19 01:31:45;;;;;;;18.83;13.93;;;11.00;99.90;;;;;;5116020;28;20976;-70
2021/10/19 01:34:12;;;;;;;17.50;14.03;;;11.00;99.90;;;;;;5116226;28;20465;-69
2021/10/19 01:36:38;;;;;;;16.40;13.13;;;11.00;99.90;;;;;;5116135;28;20973;-70
2021/10/19 01:39:07;;;;;;;16.63;13.33;;;11.00;99.90;;;;;;5116464;28;20814;-71
2021/10/19 01:41:45;;;;;;;19.37;14.30;;;11.00;99.90;;;;;;5115697;28;20527;-70
2021/10/19 01:44:12;;;;;;;15.27;12.60;;;11.00;99.90;;;;;;5116119;28;20449;-69
2021/10/19 01:47:25;;;;;;;17.03;14.10;;;11.00;99.90;;;;;;5115751;28;20460;-70
2021/10/19 01:49:52;;;;;;;19.13;13.37;;;10.90;99.90;;;;;;5115745;28;20457;-70
2021/10/19 01:52:19;;;;;;;15.90;13.70;;;10.90;99.90;;;;;;5115982;28;20457;-70
2021/10/19 01:54:47;;;;;;;19.13;14.47;;;10.90;99.90;;;;;;5115824;28;20483;-70
2021/10/19 01:57:14;;;;;;;20.47;15.00;;;10.90;99.90;;;;;;5115857;28;20460;-70
2021/10/19 01:59:40;;;;;;;18.73;14.03;;;11.00;99.90;;;;;;5115702;27;20470;-70
2021/10/19 02:02:07;;;;;;;19.20;14.80;;;11.00;99.90;;;;;;5115769;28;20456;-69
2021/10/19 02:04:33;;;;;;;17.47;14.00;;;11.00;99.90;;;;;;5115529;28;20837;-69
2021/10/19 02:07:00;;;;;;;18.60;15.40;;;11.00;99.90;;;;;;5115473;28;20481;-69
2021/10/19 02:09:27;;;;;;;16.83;12.80;;;11.00;99.90;;;;;;5115490;28;20456;-69
2021/10/19 02:11:55;;;;;;;21.00;14.80;;;11.00;99.90;;;;;;5115758;28;20453;-69
2021/10/19 02:14:22;;;;;;;16.83;13.80;;;10.90;99.90;;;;;;5115339;28;20460;-69
2021/10/19 02:16:49;;;;;;;16.70;13.40;;;10.80;99.90;;;;;;5115634;28;20449;-69
2021/10/19 02:19:15;;;;;;;16.03;12.83;;;10.80;99.90;;;;;;5115211;28;20914;-69
2021/10/19 02:21:42;;;;;;;18.17;13.40;;;10.80;99.90;;;;;;5115186;28;20940;-69
2021/10/19 02:24:09;;;;;;;18.67;15.03;;;10.90;99.90;;;;;;5115379;27;20897;-69
2021/10/19 02:26:36;;;;;;;18.17;14.23;;;10.90;99.90;;;;;;5115911;28;20845;-69
2021/10/19 02:29:04;;;;;;;16.73;13.77;;;10.90;99.90;;;;;;5115171;28;20460;-69
2021/10/19 02:31:31;;;;;;;18.00;14.53;;;10.90;99.90;;;;;;5116157;28;20461;-69
2021/10/19 02:33:57;;;;;;;19.60;14.90;;;10.90;99.90;;;;;;5115372;28;20461;-69
2021/10/19 02:36:24;;;;;;;19.67;14.13;;;10.90;99.90;;;;;;5114924;28;20983;-69
2021/10/19 02:38:52;;;;;;;21.77;15.37;;;10.90;99.90;;;;;;5114993;28;20472;-69
2021/10/19 02:41:19;;;;;;;17.63;14.00;;;10.90;99.90;;;;;;5115287;28;20499;-70
2021/10/19 02:43:45;;;;;;;17.67;13.47;;;11.00;99.90;;;;;;5115310;28;20528;-70
2021/10/19 02:46:14;;;;;;;20.23;14.70;;;10.90;99.90;;;;;;5115365;28;20531;-69
2021/10/19 02:48:40;;;;;;;18.77;14.70;;;10.90;99.90;;;;;;5115151;28;20537;-69
2021/10/19 02:51:07;;;;;;;21.00;15.37;;;10.90;99.90;;;;;;5115302;28;20527;-69
2021/10/19 02:53:34;;;;;;;18.77;14.83;;;10.80;99.90;;;;;;5115041;28;20454;-69
2021/10/19 02:56:00;;;;;;;17.37;14.97;;;10.90;99.90;;;;;;5115090;28;20543;-69
2021/10/19 02:58:27;;;;;;;18.90;15.07;;;10.90;99.90;;;;;;5115040;28;20459;-69
2021/10/19 03:00:54;;;;;;;17.00;14.83;;;10.90;99.90;;;;;;5115271;28;20460;-70
2021/10/19 03:03:22;;;;;;;18.50;14.60;;;10.90;99.90;;;;;;5115426;28;20465;-70
2021/10/19 03:05:48;;;;;;;21.67;15.80;;;10.90;99.90;;;;;;5114534;28;20927;-70
2021/10/19 03:08:15;;;;;;;19.50;15.13;;;10.80;99.90;;;;;;5114943;28;20970;-70
2021/10/19 03:10:42;;;;;;;19.00;15.53;;;10.80;99.90;;;;;;5116893;28;20482;-70
2021/10/19 03:13:08;;;;;;;16.30;14.60;;;10.80;99.90;;;;;;5119318;28;20452;-70
2021/10/19 03:15:35;;;;;;;21.50;14.83;;;10.70;99.90;;;;;;5119171;28;20484;-70
2021/10/19 03:18:02;;;;;;;19.20;14.67;;;10.60;99.90;;;;;;5119058;28;20458;-70
2021/10/19 03:20:30;;;;;;;18.30;14.03;;;10.60;99.90;;;;;;5119245;27;20457;-70
2021/10/19 03:22:57;;;;;;;19.87;16.30;;;10.70;99.90;;;;;;5119442;28;20461;-70
2021/10/19 03:25:24;;;;;;;19.47;16.10;;;10.70;99.90;;;;;;5120312;28;20449;-70
2021/10/19 03:27:50;;;;;;;21.70;15.60;;;10.60;99.90;;;;;;5119306;28;20455;-70
2021/10/19 03:30:17;;;;;;;20.13;16.60;;;10.60;99.90;;;;;;5123366;28;20730;-70
2021/10/19 03:32:44;;;;;;;19.57;15.00;;;10.60;99.90;;;;;;5126473;28;20491;-70
2021/10/19 03:35:11;;;;;;;17.57;14.90;;;10.60;99.90;;;;;;5120298;28;20490;-70
2021/10/19 03:37:39;;;;;;;19.47;16.20;;;10.70;99.90;;;;;;5119980;28;20460;-70
2021/10/19 03:40:07;;;;;;;20.57;15.70;;;10.70;99.90;;;;;;5119479;28;20834;-70
2021/10/19 03:42:35;;;;;;;18.50;15.60;;;10.60;99.90;;;;;;5118614;28;20459;-70
2021/10/19 03:45:01;;;;;;;21.10;16.50;;;10.70;99.90;;;;;;5118281;28;20561;-70
2021/10/19 03:47:28;;;;;;;22.63;16.70;;;10.70;99.90;;;;;;5118660;28;20922;-70
2021/10/19 03:49:54;;;;;;;20.43;15.47;;;10.70;99.90;;;;;;5118493;27;20844;-70
2021/10/19 03:52:21;;;;;;;19.13;15.33;;;10.70;99.90;;;;;;5118043;28;20461;-70
2021/10/19 03:54:52;;;;;;;18.57;15.30;;;10.70;99.90;;;;;;5118005;28;20453;-70
2021/10/19 03:57:19;;;;;;;18.23;15.53;;;10.60;99.90;;;;;;5118251;28;20835;-70
2021/10/19 03:59:45;;;;;;;22.47;16.37;;;10.60;99.90;;;;;;5118246;28;20494;-70
2021/10/19 04:02:12;;;;;;;23.10;16.47;;;10.50;99.90;;;;;;5118372;27;20454;-70
2021/10/19 04:04:39;;;;;;;21.30;15.80;;;10.60;99.90;;;;;;5118308;28;20459;-70
2021/10/19 04:07:05;;;;;;;24.73;16.47;;;10.50;99.90;;;;;;5117733;28;20979;-70
2021/10/19 04:09:32;;;;;;;23.97;16.93;;;10.50;99.90;;;;;;5117835;28;20911;-70
2021/10/19 04:12:00;;;;;;;21.50;16.47;;;10.50;99.90;;;;;;5118119;28;20785;-70
2021/10/19 04:14:27;;;;;;;20.83;16.87;;;10.50;99.90;;;;;;5117886;28;20535;-70
2021/10/19 04:16:53;;;;;;;20.53;16.47;;;10.50;99.90;;;;;;5117679;28;20778;-70
2021/10/19 04:19:20;;;;;;;23.27;16.87;;;10.50;99.90;;;;;;5117873;28;20470;-70
2021/10/19 04:21:49;;;;;;;20.57;15.87;;;10.50;99.90;;;;;;5116212;28;20785;-70
2021/10/19 04:24:16;;;;;;;21.43;16.07;;;10.40;99.90;;;;;;5117737;28;20455;-70
2021/10/19 04:26:44;;;;;;;25.20;17.57;;;10.40;99.90;;;;;;5117906;28;20449;-70
2021/10/19 04:29:12;;;;;;;22.40;17.50;;;10.50;99.90;;;;;;5117592;28;20463;-70
2021/10/19 04:31:39;;;;;;;22.83;18.00;;;10.40;99.90;;;;;;5117465;28;20496;-69
2021/10/19 04:34:07;;;;;;;21.97;17.27;;;10.50;99.90;;;;;;5117165;28;20454;-69
2021/10/19 04:36:34;;;;;;;20.53;15.87;;;10.50;99.90;;;;;;5117332;28;20475;-70
2021/10/19 04:39:01;;;;;;;22.93;17.57;;;10.50;99.90;;;;;;5117040;28;20468;-70
2021/10/19 04:41:28;;;;;;;24.77;17.57;;;10.50;99.90;;;;;;5117176;27;20463;-70
2021/10/19 04:43:55;;;;;;;21.80;16.97;;;10.50;99.90;;;;;;5117402;28;20455;-70
2021/10/19 04:46:23;;;;;;;23.30;17.07;;;10.50;99.90;;;;;;5117250;28;20458;-70
2021/10/19 04:48:50;;;;;;;23.40;17.37;;;10.50;99.90;;;;;;5117139;28;20484;-69
2021/10/19 04:51:17;;;;;;;22.60;17.40;;;10.60;99.90;;;;;;5117450;28;20469;-70
2021/10/19 04:53:44;;;;;;;24.07;17.60;;;10.60;99.90;;;;;;5116728;28;20926;-70
2021/10/19 04:56:11;;;;;;;21.33;17.03;;;10.60;99.90;;;;;;5116698;28;20477;-70
2021/10/19 04:58:37;;;;;;;24.50;18.30;;;10.60;99.90;;;;;;5116886;28;20788;-70
2021/10/19 05:01:04;;;;;;;25.00;17.40;;;10.60;99.90;;;;;;5117123;28;20517;-70
2021/10/19 05:03:32;;;;;;;20.57;16.87;;;10.50;99.90;;;;;;5116665;28;20820;-70
2021/10/19 05:05:59;;;;;;;20.73;16.83;;;10.50;99.90;;;;;;5116600;28;20465;-70
2021/10/19 05:08:25;;;;;;;24.13;18.50;;;10.50;99.90;;;;;;5116734;28;20453;-70
2021/10/19 05:10:58;;;;;;;24.60;18.27;;;10.50;99.90;;;;;;5117322;28;20928;-71
2021/10/19 05:13:27;;;;;;;23.00;16.73;;;10.50;99.90;;;;;;5116705;28;20526;-69
2021/10/19 05:15:54;;;;;;;22.60;18.33;;;10.40;99.90;;;;;;5116357;28;20478;-69
2021/10/19 05:18:21;;;;;;;26.40;17.87;;;10.40;99.90;;;;;;5116447;28;20455;-69
2021/10/19 05:20:49;;;;;;;23.57;17.73;;;10.40;99.90;;;;;;5116682;27;20452;-69
2021/10/19 05:23:15;;;;;;;24.00;18.00;;;10.40;99.90;;;;;;5116707;28;20523;-70
2021/10/19 05:25:43;;;;;;;22.17;17.00;;;10.50;99.90;;;;;;5116095;28;20491;-69
2021/10/19 05:28:13;;;;;;;24.17;17.97;;;10.50;99.90;;;;;;5116031;28;20509;-69
2021/10/19 05:30:39;;;;;;;23.73;18.00;;;10.50;99.90;;;;;;5116451;28;20462;-70
2021/10/19 05:33:07;;;;;;;27.30;18.20;;;10.50;99.90;;;;;;5115754;28;20525;-70
2021/10/19 05:35:34;;;;;;;25.73;18.20;;;10.50;99.90;;;;;;5116082;28;20456;-70
2021/10/19 05:38:02;;;;;;;28.17;18.07;;;10.50;99.90;;;;;;5115989;28;20455;-70
2021/10/19 05:40:28;;;;;;;25.50;18.83;;;10.40;99.90;;;;;;5116212;28;20792;-70
2021/10/19 05:42:56;;;;;;;22.33;16.03;;;10.40;99.90;;;;;;5116099;28;20453;-70
2021/10/19 05:45:23;;;;;;;22.93;17.90;;;10.50;99.90;;;;;;5115717;28;20487;-69
2021/10/19 05:47:49;;;;;;;19.43;16.30;;;10.60;99.90;;;;;;5116606;28;20753;-70
2021/10/19 05:50:18;;;;;;;23.03;18.17;;;10.70;99.90;;;;;;5115951;28;20809;-70
2021/10/19 05:52:45;;;;;;;23.20;17.20;;;10.70;99.90;;;;;;5115657;28;20527;-71
2021/10/19 05:55:13;;;;;;;19.60;16.40;;;10.70;99.90;;;;;;5116213;28;20470;-70
2021/10/19 05:57:40;;;;;;;29.40;19.60;;;10.70;99.90;;;;;;5115721;28;20513;-70
2021/10/19 06:00:08;;;;;;;25.13;18.40;;;10.80;99.90;;;;;;5115441;28;20935;-70
2021/10/19 06:02:35;;;;;;;26.97;17.67;;;10.80;99.90;;;;;;5116311;28;20468;-71
2021/10/19 06:05:02;;;;;;;21.37;17.10;;;10.80;99.90;;;;;;5116018;28;20840;-71
2021/10/19 06:07:28;;;;;;;28.37;17.07;;;10.70;99.90;;;;;;5115254;28;20502;-70
2021/10/19 06:09:55;;;;;;;25.80;17.47;;;10.70;99.90;;;;;;5115390;28;20473;-70
2021/10/19 06:12:24;;;;;;;29.93;18.07;;;10.70;99.90;;;;;;5115522;28;20524;-70
2021/10/19 06:14:51;;;;;;;21.77;17.40;;;10.70;99.90;;;;;;5115286;28;20453;-70
2021/10/19 06:17:17;;;;;;;25.87;17.30;;;10.70;99.90;;;;;;5115304;28;20475;-71
2021/10/19 06:19:44;;;;;;;21.90;17.23;;;10.70;99.90;;;;;;5115232;28;20785;-70
2021/10/19 06:22:11;;;;;;;27.80;17.97;;;10.70;99.90;;;;;;5115385;28;20457;-70
2021/10/19 06:24:38;;;;;;;23.50;17.87;;;10.70;99.90;;;;;;5115446;28;20459;-70
2021/10/19 06:27:04;;;;;;;22.47;17.40;;;10.70;99.90;;;;;;5115463;28;20906;-70
2021/10/19 06:29:32;;;;;;;23.97;18.40;;;10.80;99.90;;;;;;5115504;28;20654;-70
2021/10/19 06:31:59;;;;;;;23.30;16.87;;;10.80;99.90;;;;;;5116091;28;20507;-70
2021/10/19 06:34:26;;;;;;;23.50;17.43;;;10.90;99.90;;;;;;5115450;28;20454;-70
2021/10/19 06:36:52;;;;;;;25.37;18.27;;;10.90;99.90;;;;;;5115096;28;20480;-70
2021/10/19 06:39:19;;;;;;;26.73;17.80;;;11.00;99.90;;;;;;5115958;28;20456;-70
2021/10/19 06:41:46;;;;;;;23.67;17.80;;;11.00;99.90;;;;;;5115157;28;20465;-70
2021/10/19 06:44:12;;;;;;;23.90;18.10;;;11.00;99.90;;;;;;5114252;28;20458;-71
2021/10/19 06:46:40;;;;;;;25.07;18.23;;;11.00;99.90;;;;;;5114367;28;20907;-70
2021/10/19 06:49:07;;;;;;;27.37;19.87;;;11.10;99.90;;;;;;5115579;28;20928;-70
2021/10/19 06:51:34;;;;;;;27.20;18.17;;;11.10;99.90;;;;;;5114806;28;20518;-70
2021/10/19 06:54:00;;;;;;;23.70;18.00;;;11.10;99.90;;;;;;5114977;28;20462;-70
2021/10/19 06:56:27;;;;;;;22.50;17.37;;;11.20;99.90;;;;;;5115062;28;20489;-70
2021/10/19 06:58:54;;;;;;;25.50;18.70;;;11.20;99.90;;;;;;5114719;28;20468;-70
2021/10/19 07:01:20;;;;;;;24.93;17.90;;;11.20;99.90;;;;;;5114787;28;20457;-70
2021/10/19 07:03:51;;;;;;;25.90;18.30;;;11.30;99.90;;;;;;5114579;28;20502;-70
2021/10/19 07:06:18;;;;;;;24.83;17.63;;;11.20;99.90;;;;;;5114906;28;20850;-70
2021/10/19 07:08:44;;;;;;;24.30;18.20;;;11.20;99.90;;;;;;5114899;28;20469;-70
2021/10/19 07:11:11;;;;;;;25.20;16.67;;;11.30;99.90;;;;;;5114733;28;20467;-70
2021/10/19 07:13:38;;;;;;;22.30;16.93;;;11.30;99.90;;;;;;5114460;28;20494;-70
2021/10/19 07:16:05;;;;;;;24.20;18.60;;;11.40;99.90;;;;;;5114547;28;20581;-70
2021/10/19 07:18:31;;;;;;;23.77;18.40;;;11.40;99.90;;;;;;5114820;28;20736;-70
2021/10/19 07:20:59;;;;;;;21.90;17.63;;;11.50;99.90;;;;;;5114927;28;20456;-70
2021/10/19 07:23:26;;;;;;;25.83;18.70;;;11.60;99.90;;;;;;5114737;28;20457;-70
2021/10/19 07:25:53;;;;;;;30.20;19.00;;;11.60;99.90;;;;;;5114509;28;20454;-70
2021/10/19 07:28:21;;;;;;;24.50;17.90;;;11.60;99.90;;;;;;5114581;28;20503;-70
2021/10/19 07:30:47;;;;;;;28.20;19.03;;;11.60;99.90;;;;;;5114054;28;20462;-70
2021/10/19 07:33:14;;;;;;;22.60;17.00;;;11.60;99.90;;;;;;5114071;28;20464;-70
2021/10/19 07:35:41;;;;;;;24.33;17.00;;;11.60;99.90;;;;;;5114824;28;20514;-70
2021/10/19 07:38:10;;;;;;;23.93;17.10;;;11.70;99.90;;;;;;5114275;28;20477;-70
2021/10/19 07:40:36;;;;;;;22.33;16.40;;;11.80;99.90;;;;;;5114348;28;20465;-70
2021/10/19 07:43:03;;;;;;;21.63;17.90;;;11.80;99.90;;;;;;5114863;28;20467;-70
2021/10/19 07:45:30;;;;;;;22.63;18.43;;;11.90;99.90;;;;;;5114042;28;20874;-70
2021/10/19 07:48:00;;;;;;;22.33;17.43;;;11.90;99.90;;;;;;5114562;28;20585;-71
2021/10/19 07:50:29;;;;;;;25.97;18.17;;;12.00;99.90;;;;;;5114159;28;20548;-70
2021/10/19 07:52:56;;;;;;;23.53;17.10;;;11.90;99.90;;;;;;5114464;28;20792;-70
2021/10/19 07:55:29;;;;;;;22.80;17.10;;;11.90;99.90;;;;;;5114448;28;20459;-70
2021/10/19 07:57:56;;;;;;;23.57;17.80;;;11.90;99.90;;;;;;5117573;28;20545;-70
2021/10/19 08:00:24;;;;;;;21.00;15.70;;;11.90;99.90;;;;;;5117287;28;20464;-71
2021/10/19 08:02:52;;;;;;;25.63;17.10;;;12.00;99.90;;;;;;5118096;28;20467;-70
2021/10/19 08:05:19;;;;;;;24.60;16.93;;;12.10;99.90;;;;;;5117835;28;20486;-70
2021/10/19 08:07:47;;;;;;;26.37;16.40;;;12.20;99.90;;;;;;5117848;28;20531;-70
2021/10/19 08:10:17;;;;;;;29.20;17.30;;;12.30;99.90;;;;;;5117884;28;20517;-70
2021/10/19 08:12:46;;;;;;;27.47;18.23;;;12.30;99.90;;;;;;5117887;28;20455;-70
2021/10/19 08:15:13;;;;;;;20.60;16.43;;;12.40;99.90;;;;;;5117605;28;20497;-70
2021/10/19 08:17:40;;;;;;;25.73;16.33;;;12.50;99.90;;;;;;5117620;28;20487;-71
2021/10/19 08:20:08;;;;;;;21.53;17.00;;;12.60;99.90;;;;;;5118992;28;20457;-71
2021/10/19 08:22:36;;;;;;;22.40;16.77;;;12.60;99.90;;;;;;5117504;27;20796;-69
2021/10/19 08:25:05;;;;;;;25.37;16.43;;;12.70;99.90;;;;;;5117965;27;20463;-70
2021/10/19 08:27:33;;;;;;;21.37;16.23;;;12.70;99.90;;;;;;5117578;28;20946;-70
2021/10/19 08:30:01;;;;;;;21.20;16.60;;;12.70;99.90;;;;;;5117121;28;20932;-70
2021/10/19 08:32:28;;;;;;;26.60;16.60;;;12.80;99.90;;;;;;5117547;28;20515;-69
2021/10/19 08:34:55;;;;;;;22.63;16.60;;;12.80;99.90;;;;;;5117523;28;20517;-70
2021/10/19 08:37:21;;;;;;;23.33;15.90;;;12.80;99.90;;;;;;5117426;28;20483;-70
2021/10/19 08:39:48;;;;;;;21.53;15.93;;;12.80;99.90;;;;;;5117569;28;20483;-70
2021/10/19 08:42:15;;;;;;;29.70;17.50;;;12.80;99.90;;;;;;5116823;28;20984;-70
2021/10/19 08:44:44;;;;;;;28.20;18.40;;;12.80;99.90;;;;;;5116897;28;20460;-70
2021/10/19 08:47:13;;;;;;;21.83;16.80;;;12.90;99.90;;;;;;5117341;28;20494;-71
2021/10/19 08:49:40;;;;;;;22.60;16.90;;;12.90;99.90;;;;;;5117547;27;20525;-71
2021/10/19 08:52:07;;;;;;;20.87;16.77;;;13.00;99.90;;;;;;5116813;28;20459;-70
2021/10/19 08:54:34;;;;;;;20.97;16.57;;;13.10;99.90;;;;;;5116733;28;20459;-70
2021/10/19 08:57:01;;;;;;;21.93;16.63;;;13.20;99.90;;;;;;5116932;28;20484;-70
2021/10/19 08:59:28;;;;;;;23.60;15.47;;;13.20;99.90;;;;;;5116898;28;20457;-70
2021/10/19 09:01:57;;;;;;;20.90;16.47;;;13.30;99.90;;;;;;5116926;28;20457;-70
2021/10/19 09:04:33;;;;;;;20.67;15.90;;;13.40;99.90;;;;;;5116651;28;20555;-71
2021/10/19 09:06:59;;;;;;;21.83;16.20;;;13.50;99.90;;;;;;5116058;28;21017;-70
2021/10/19 09:09:27;;;;;;;20.07;15.03;;;13.60;99.90;;;;;;5116069;28;20529;-70
2021/10/19 09:11:56;;;;;;;20.73;15.77;;;13.70;99.90;;;;;;5116751;28;20457;-70
2021/10/19 09:14:29;;;;;;;22.37;16.30;;;13.70;99.90;;;;;;5116738;28;20495;-70
2021/10/19 09:16:57;;;;;;;21.20;16.10;;;13.80;99.90;;;;;;5116754;28;20469;-70
2021/10/19 09:19:24;;;;;;;17.53;14.93;;;13.90;99.90;;;;;;5116435;28;20460;-70
2021/10/19 09:21:55;;;;;;;20.30;16.17;;;14.00;99.90;;;;;;5116499;28;20764;-70
2021/10/19 09:24:26;;;;;;;19.93;14.47;;;14.00;99.90;;;;;;5116101;27;20441;-70
2021/10/19 09:26:56;;;;;;;18.77;14.83;;;14.10;99.90;;;;;;5116673;28;20526;-70
2021/10/19 09:29:23;;;;;;;23.33;13.63;;;14.10;99.90;;;;;;5116093;28;20479;-70
2021/10/19 09:31:54;;;;;;;19.90;14.77;;;14.20;99.90;;;;;;5116301;28;20518;-70
2021/10/19 09:34:21;;;;;;;19.43;14.07;;;14.20;99.90;;;;;;5116317;28;20459;-70
2021/10/19 09:36:53;;;;;;;19.33;14.53;;;14.30;99.90;;;;;;5115955;28;20457;-70
2021/10/19 09:39:31;;;;;;;18.83;14.37;;;14.40;99.90;;;;;;5116062;27;20437;-70
2021/10/19 09:41:57;;;;;;;20.73;14.20;;;14.50;99.90;;;;;;5116105;28;20461;-70
2021/10/19 09:44:24;;;;;;;17.47;13.67;;;14.60;99.90;;;;;;5115492;28;20908;-70
2021/10/19 09:46:51;;;;;;;21.20;14.80;;;14.70;99.90;;;;;;5116310;28;20456;-70
2021/10/19 09:49:18;;;;;;;17.23;13.40;;;14.70;99.90;;;;;;5115838;28;20470;-70
2021/10/19 09:51:45;;;;;;;25.50;14.80;;;14.80;99.90;;;;;;5115890;27;20505;-70
2021/10/19 09:54:18;;;;;;;15.97;13.60;;;14.90;99.90;;;;;;5116500;28;20935;-70
2021/10/19 09:56:46;;;;;;;21.60;14.80;;;15.00;99.90;;;;;;5115395;28;20894;-70
2021/10/19 09:59:16;;;;;;;19.90;14.30;;;15.10;99.90;;;;;;5115913;28;20490;-70
2021/10/19 10:01:43;;;;;;;18.97;14.40;;;15.20;99.90;;;;;;5115630;28;20464;-70
2021/10/19 10:04:10;;;;;;;19.10;14.50;;;15.10;99.90;;;;;;5115755;28;20456;-70
2021/10/19 10:06:39;;;;;;;16.63;13.53;;;15.20;99.90;;;;;;5115990;28;20995;-70
2021/10/19 10:09:07;;;;;;;15.77;13.33;;;15.30;99.90;;;;;;5115354;28;20452;-70
2021/10/19 10:11:38;;;;;;;22.40;14.03;;;15.30;99.90;;;;;;5115306;28;20457;-70
2021/10/19 10:14:05;;;;;;;18.10;12.63;;;15.30;99.90;;;;;;5115715;28;20441;-69
2021/10/19 10:16:43;;;;;;;19.13;13.40;;;15.40;99.90;;;;;;5115115;28;20504;-70
2021/10/19 10:19:12;;;;;;;19.30;12.47;;;15.40;99.90;;;;;;5115361;28;20779;-69
2021/10/19 10:21:50;;;;;;;16.63;11.97;;;15.50;99.90;;;;;;5114572;28;20509;-69
2021/10/19 10:24:28;;;;;;;18.47;13.40;;;15.60;99.90;;;;;;5115020;28;20494;-69
2021/10/19 10:27:05;;;;;;;17.17;12.67;;;15.60;99.90;;;;;;5115301;28;20527;-70
2021/10/19 10:29:42;;;;;;;18.80;12.87;;;15.50;99.90;;;;;;5114714;28;20444;-69
2021/10/19 10:32:19;;;;;;;15.17;12.97;;;15.50;99.90;;;;;;5114914;28;20476;-69
2021/10/19 10:34:46;;;;;;;16.90;13.10;;;15.50;99.90;;;;;;5116121;28;20444;-70
2021/10/19 10:37:13;;;;;;;16.33;13.30;;;15.60;99.90;;;;;;5115052;28;20456;-71
2021/10/19 10:39:46;;;;;;;15.23;13.57;;;15.70;99.90;;;;;;5114774;28;20463;-71
2021/10/19 10:42:15;;;;;;;15.43;12.57;;;15.70;99.90;;;;;;5115293;28;20448;-71
2021/10/19 10:44:43;;;;;;;21.00;13.00;;;15.80;99.90;;;;;;5114645;28;20479;-70
2021/10/19 10:47:11;;;;;;;17.57;13.60;;;15.80;99.90;;;;;;5114721;28;20453;-70
2021/10/19 10:49:38;;;;;;;20.10;13.10;;;15.80;99.90;;;;;;5114641;28;20449;-71
2021/10/19 10:52:15;;;;;;;15.50;13.63;;;15.90;99.90;;;;;;5117831;28;20457;-70
2021/10/19 10:54:51;;;;;;;19.20;12.83;;;16.00;99.90;;;;;;5117930;28;20744;-71
2021/10/19 10:57:20;;;;;;;18.30;13.80;;;16.10;99.90;;;;;;5116211;28;20448;-73
2021/10/19 10:59:53;;;;;;;15.83;13.20;;;16.10;99.90;;;;;;5118606;28;20453;-70
2021/10/19 11:02:25;;;;;;;16.93;12.90;;;16.20;99.90;;;;;;5118528;28;20955;-70
2021/10/19 11:04:54;;;;;;;19.60;13.03;;;16.30;99.90;;;;;;5116829;28;20445;-71
2021/10/19 11:07:30;;;;;;;14.90;12.77;;;16.40;99.90;;;;;;5114887;28;20485;-72
2021/10/19 11:09:56;;;;;;;17.70;12.20;;;16.60;99.90;;;;;;5114908;28;20506;-71
2021/10/19 11:12:25;;;;;;;16.73;12.53;;;16.70;99.90;;;;;;5114956;28;20452;-71
2021/10/19 11:14:51;;;;;;;16.97;12.67;;;16.70;99.90;;;;;;5116690;28;20453;-70
2021/10/19 11:17:19;;;;;;;13.90;12.40;;;16.70;99.90;;;;;;5117647;28;20795;-69
2021/10/19 11:19:46;;;;;;;15.37;12.97;;;16.80;99.90;;;;;;5114403;28;20861;-71
2021/10/19 11:22:13;;;;;;;17.40;12.00;;;16.90;99.90;;;;;;5115264;28;20484;-69
2021/10/19 11:24:41;;;;;;;18.90;12.97;;;17.00;99.90;;;;;;5114489;28;20771;-70
2021/10/19 11:27:08;;;;;;;15.63;12.03;;;17.00;99.90;;;;;;5114047;28;20456;-70
2021/10/19 11:29:38;;;;;;;17.33;12.70;;;17.20;99.90;;;;;;5114285;28;20452;-70
2021/10/19 11:32:10;;;;;;;14.17;11.60;;;17.20;99.90;;;;;;5116935;28;20465;-70
2021/10/19 11:34:37;;;;;;;13.37;11.47;;;17.40;99.90;;;;;;5118205;28;20468;-70
2021/10/19 11:37:04;;;;;;;12.47;10.07;;;17.60;99.90;;;;;;5118089;28;20468;-70
2021/10/19 11:39:30;;;;;;;12.33;10.53;;;17.80;99.90;;;;;;5118139;28;20799;-70
2021/10/19 11:42:00;;;;;;;13.53;10.90;;;17.90;99.90;;;;;;5117995;28;20980;-70
2021/10/19 11:44:29;;;;;;;10.97;9.83;;;18.00;99.90;;;;;;5118453;28;20788;-70
2021/10/19 11:47:04;;;;;;;13.27;10.93;;;18.00;99.90;;;;;;5118056;28;20456;-70
2021/10/19 11:49:32;;;;;;;12.87;11.00;;;18.10;99.90;;;;;;5118407;28;20461;-70
2021/10/19 11:52:00;;;;;;;11.40;10.20;;;18.20;99.90;;;;;;5117769;28;20962;-70
2021/10/19 11:54:31;;;;;;;14.00;11.03;;;18.30;99.90;;;;;;5117905;28;20955;-70
2021/10/19 11:56:59;;;;;;;10.73;9.67;;;18.40;99.90;;;;;;5117766;28;20535;-71
2021/10/19 11:59:26;;;;;;;13.70;11.77;;;18.40;99.90;;;;;;5118638;28;20556;-70
2021/10/19 12:01:55;;;;;;;14.10;11.10;;;18.30;99.90;;;;;;5117991;28;20456;-69
2021/10/19 12:04:26;;;;;;;13.90;10.67;;;18.10;99.90;;;;;;5118047;28;20517;-71
2021/10/19 12:06:54;;;;;;;12.10;10.23;;;18.10;99.90;;;;;;5117485;28;20491;-70
2021/10/19 12:09:22;;;;;;;11.57;10.13;;;18.00;99.90;;;;;;5117534;28;20445;-71
2021/10/19 12:11:51;;;;;;;10.13;9.13;;;18.00;99.90;;;;;;5117480;27;20521;-71
2021/10/19 12:14:19;;;;;;;14.70;9.77;;;18.00;99.90;;;;;;5117276;28;20517;-71
2021/10/19 12:16:56;;;;;;;10.27;8.73;;;18.10;99.90;;;;;;5117576;27;20460;-70
2021/10/19 12:19:24;;;;;;;11.60;8.70;;;18.20;99.90;;;;;;5117289;27;20955;-70
2021/10/19 12:21:54;;;;;;;11.37;10.17;;;18.20;99.90;;;;;;5117645;28;20457;-70
2021/10/19 12:24:21;;;;;;;11.20;9.43;;;18.20;99.90;;;;;;5117109;28;20457;-71
2021/10/19 12:26:48;;;;;;;11.23;9.00;;;18.20;99.90;;;;;;5117179;28;20460;-71
2021/10/19 12:29:15;;;;;;;10.77;8.10;;;18.20;99.90;;;;;;5117250;28;20782;-71
2021/10/19 12:31:48;;;;;;;10.33;9.03;;;18.10;99.90;;;;;;5117302;28;20778;-70